^^
Datos históricos de la estación: Murcia-Puente Tocinos
Diario Informe para Noviembre 20, 2019 Unidades:  Ingés    Métrico   Ambas
Diario Semanal Mensual Anual
  Máxima: Mínima: Promedio:
Temperatura: 61.3 °F 44.2 °F 52.3 °F
Punto de rocio: 50 °F 37.8 °F 43 °F
Humedad: 88% 50.6% 72%
Velocidad viento: 6.4mph 0mph 3mph
Racha viento: 13mph - -
Viento- - Sur
Presión: 30 in 29.8 in -
Precipitación: 0.01 in    
 
 
Tabla de datos para Noviembre 20, 2019
Hora Temperatura Punto de rocio Presión Viento Velocidad viento Racha viento Humedad Intensidad lluvia(por hora) Nubes
00:04 50.5 °F 43.9 °F 30 in SSE 2.8 mph 5.8 mph 78.1% 0 in
00:09 50.2 °F 43.9 °F 30 in Sur 3.1 mph 6 mph 79% 0 in
00:14 50 °F 43.9 °F 30 in SSE 3.6 mph 6.2 mph 79.3% 0 in
00:19 49.8 °F 43.9 °F 30 in SE 4 mph 6 mph 79.8% 0 in
00:24 49.6 °F 43.7 °F 30 in Sur 4 mph 6 mph 80% 0 in
00:29 49.5 °F 43.9 °F 30 in SSO 4 mph 6 mph 80.9% 0 in
00:34 49.5 °F 43.9 °F 30 in SSO 3.4 mph 5 mph 81% 0 in
00:39 49.3 °F 43.7 °F 30 in Sur 2.9 mph 4.6 mph 81% 0 in
00:44 49.3 °F 43.7 °F 30 in Sur 2.9 mph 5 mph 81% 0 in
00:49 49.3 °F 43.7 °F 30 in Sur 2.9 mph 5 mph 81% 0 in
00:54 49.1 °F 43.5 °F 30 in SSE 2.9 mph 5 mph 81.3% 0 in
00:59 48.9 °F 43.7 °F 30 in Sur 2.9 mph 5.9 mph 82% 0 in
01:04 48.7 °F 43.5 °F 30 in SSO 3 mph 6 mph 82% 0 in
01:09 48.7 °F 43.5 °F 30 in SSO 3.1 mph 5 mph 82% 0 in
01:14 48.7 °F 43.3 °F 30 in SSE 3 mph 6.2 mph 81.5% 0 in
01:19 48.7 °F 43.3 °F 30 in Sur 2.9 mph 6.9 mph 81.2% 0 in
01:24 48.7 °F 43.2 °F 30 in SSE 3.4 mph 7 mph 81% 0 in
01:29 48.6 °F 43 °F 29.9 in Sur 3.6 mph 6 mph 81% 0 in
01:34 48.4 °F 42.6 °F 29.9 in Sur 3.2 mph 6 mph 80.1% 0 in
01:39 48.4 °F 42.4 °F 29.9 in Sur 3.1 mph 5.2 mph 80% 0 in
01:44 48.4 °F 42.4 °F 29.9 in SSE 3.1 mph 4.6 mph 80% 0 in
01:49 48.4 °F 42.4 °F 29.9 in Sur 3.1 mph 5 mph 80% 0 in
01:54 48.2 °F 41.9 °F 29.9 in Sur 3 mph 5 mph 79.1% 0 in
01:59 48 °F 41.7 °F 29.9 in SSO 2.9 mph 5 mph 79% 0 in
02:04 48 °F 41.7 °F 29.9 in Sur 2.9 mph 5 mph 79% 0 in
02:09 48 °F 41.5 °F 29.9 in Sur 2.9 mph 5.2 mph 78.2% 0 in
02:14 48 °F 41.5 °F 29.9 in SSO 3.4 mph 5 mph 78.3% 0 in
02:19 48 °F 41.7 °F 29.9 in SSO 3.6 mph 5 mph 79% 0 in
02:24 48 °F 41.7 °F 29.9 in SSO 2.5 mph 5 mph 79% 0 in
02:29 48 °F 41.7 °F 29.9 in SSO 2 mph 2.9 mph 79% 0 in
02:34 48 °F 41.5 °F 29.9 in SSO 1.6 mph 3.5 mph 78.3% 0 in
02:39 48 °F 41.5 °F 29.9 in SSO 1.4 mph 3.6 mph 78% 0 in
02:44 48 °F 41.5 °F 29.9 in SO 1.7 mph 4.6 mph 78% 0 in
02:49 48 °F 41.5 °F 29.9 in SSO 1.8 mph 5 mph 78% 0 in
02:54 48 °F 41.7 °F 29.9 in SE 2.2 mph 5 mph 78.6% 0 in
02:59 48 °F 41.7 °F 29.9 in SE 2.4 mph 5 mph 79% 0 in
03:04 47.8 °F 41.7 °F 29.9 in SSE 2.7 mph 5 mph 79.3% 0 in
03:09 47.7 °F 41.9 °F 29.9 in SSE 2.9 mph 5.9 mph 80% 0 in
03:14 47.3 °F 41.4 °F 29.9 in SSE 3 mph 6.9 mph 80.1% 0 in
03:19 46.8 °F 41.2 °F 29.9 in SSE 3.1 mph 7.4 mph 81.1% 0 in
03:24 46.2 °F 41.2 °F 29.9 in SSE 4.2 mph 7 mph 82% 0 in
03:29 46 °F 41.2 °F 29.9 in SE 4.7 mph 6 mph 82.8% 0 in
03:34 46 °F 41.2 °F 29.9 in SE 4.2 mph 6 mph 83% 0 in
03:39 45.9 °F 41 °F 29.9 in SSE 4 mph 6.2 mph 83% 0 in
03:44 45.7 °F 41 °F 29.9 in SSE 4.2 mph 6.2 mph 83.6% 0 in
03:49 45.7 °F 41.2 °F 29.9 in SSE 4.3 mph 6 mph 84% 0 in
03:54 45.7 °F 41.2 °F 29.9 in SSE 3.9 mph 6 mph 84% 0 in
03:59 45.7 °F 41 °F 29.9 in Sur 3.6 mph 5.8 mph 83.6% 0 in
04:04 45.9 °F 41 °F 29.9 in Sur 3.6 mph 6 mph 83% 0 in
04:09 45.9 °F 41 °F 29.9 in Sur 3.6 mph 5.8 mph 83% 0 in
04:14 45.9 °F 41 °F 29.9 in Sur 3.6 mph 6.9 mph 82.7% 0 in
04:19 46 °F 40.8 °F 29.9 in Sur 3.6 mph 7 mph 82% 0 in
04:24 46 °F 40.8 °F 29.9 in Sur 3.6 mph 6 mph 81.8% 0 in
04:29 46.2 °F 40.6 °F 29.9 in Sur 3.6 mph 6.4 mph 81% 0 in
04:34 46.2 °F 40.6 °F 29.9 in SSO 4.1 mph 8.1 mph 80.8% 0 in
04:39 46.2 °F 40.5 °F 29.9 in Sur 4.3 mph 8.1 mph 80% 0 in
04:44 46.2 °F 40.5 °F 29.9 in Sur 4.9 mph 8 mph 80% 0 in
04:49 46.2 °F 40.5 °F 29.9 in Sur 5.2 mph 7 mph 80% 0 in
04:54 46 °F 40.3 °F 29.9 in SSE 4.8 mph 8.1 mph 80% 0 in
04:59 46 °F 40.3 °F 29.9 in Sur 4.7 mph 8 mph 80% 0 in
05:04 46 °F 40.3 °F 29.9 in Sur 4.7 mph 7.6 mph 80% 0 in
05:09 45.9 °F 40.1 °F 29.9 in SSO 4.7 mph 8.1 mph 79.8% 0 in
05:14 45.9 °F 39.7 °F 29.9 in SSO 5 mph 8 mph 79% 0 in
05:19 46 °F 39.9 °F 29.9 in SSO 5.2 mph 7 mph 79% 0 in
05:24 46 °F 39.7 °F 29.9 in Sur 4.3 mph 6.2 mph 78.4% 0 in
05:29 46.2 °F 39.7 °F 29.9 in SSO 4 mph 6 mph 78% 0 in
05:34 46.2 °F 39.7 °F 29.9 in SO 4 mph 6.9 mph 78% 0 in
05:39 46.2 °F 39.4 °F 29.9 in SO 4 mph 7 mph 77% 0 in
05:44 46.2 °F 39.4 °F 29.9 in SO 3.7 mph 5.9 mph 77% 0 in
05:49 46.2 °F 39.2 °F 29.9 in SO 3.6 mph 6.9 mph 76.4% 0 in
05:54 46.2 °F 39 °F 29.9 in SO 3.9 mph 7 mph 76% 0 in
05:59 46.2 °F 39 °F 29.9 in SO 4 mph 7 mph 76% 0 in
06:04 46 °F 39 °F 29.9 in OSO 4 mph 7.4 mph 75.9% 0 in
06:09 46 °F 38.7 °F 29.9 in OSO 4 mph 7 mph 75% 0 in
06:14 45.9 °F 38.5 °F 29.9 in OSO 4 mph 6.2 mph 75% 0 in
06:19 45.7 °F 38.3 °F 29.9 in SO 4 mph 6 mph 75.3% 0 in
06:24 45.7 °F 38.5 °F 29.9 in SO 3.7 mph 6 mph 76% 0 in
06:29 45.7 °F 38.5 °F 29.9 in SO 3.6 mph 5 mph 76% 0 in
06:34 45.7 °F 38.5 °F 29.9 in SSO 3.2 mph 5 mph 76% 0 in
06:39 45.7 °F 38.5 °F 29.9 in SSO 3.1 mph 5.8 mph 76% 0 in
06:44 45.7 °F 38.5 °F 29.9 in SSO 3.1 mph 6 mph 76% 0 in
06:49 45.9 °F 38.7 °F 29.9 in SO 3.1 mph 5 mph 76% 0 in
06:54 45.9 °F 38.7 °F 29.9 in SO 3.1 mph 6.9 mph 76% 0 in
06:59 45.9 °F 38.7 °F 29.9 in SO 3.1 mph 7 mph 75.9% 0 in
07:04 45.9 °F 38.5 °F 29.9 in SO 3.1 mph 6 mph 75.4% 0 in
07:09 45.7 °F 38.3 °F 29.9 in SO 3.1 mph 6.9 mph 75% 0 in
07:14 45.7 °F 38.3 °F 29.9 in SO 3.4 mph 7 mph 75.1% 0 in
07:19 45.7 °F 38.5 °F 29.9 in SO 3.6 mph 5 mph 75.9% 0 in
07:24 45.7 °F 38.5 °F 29.9 in SO 2.5 mph 4 mph 76% 0 in
07:29 45.3 °F 38.5 °F 29.9 in SO 2 mph 3.5 mph 76.7% 0 in
07:34 45.3 °F 38.5 °F 29.9 in SO 1.6 mph 3 mph 77.3% 0 in
07:39 45.1 °F 38.7 °F 29.9 in SO 1.4 mph 3.6 mph 78% 0 in
07:44 45 °F 38.5 °F 29.9 in SO 1.8 mph 4.6 mph 78% 0 in
07:49 45 °F 38.5 °F 29.9 in OSO 2 mph 5 mph 78% 0 in
07:54 45 °F 38.5 °F 29.9 in OSO 2.3 mph 5 mph 78% 0 in
07:59 44.8 °F 38.1 °F 29.9 in Oeste 2.4 mph 5.2 mph 77.2% 0 in
08:04 44.6 °F 37.8 °F 29.9 in OSO 2.7 mph 5 mph 77% 0 in
08:09 44.4 °F 37.9 °F 29.9 in OSO 2.9 mph 5.8 mph 77.8% 0 in
08:14 44.2 °F 37.9 °F 29.9 in OSO 2.9 mph 6 mph 78% 0 in
08:19 44.4 °F 37.9 °F 29.9 in SO 2.9 mph 6 mph 78% 0 in
08:24 44.4 °F 38.1 °F 29.9 in SSO 3 mph 5 mph 78% 0 in
08:29 44.8 °F 38.3 °F 29.9 in Sur 3.1 mph 5 mph 77.8% 0 in
08:34 45 °F 38.5 °F 29.9 in SSE 3 mph 5.8 mph 78.2% 0 in
08:39 44.8 °F 38.7 °F 29.9 in SSE 2.9 mph 6.2 mph 79.3% 0 in
08:44 44.2 °F 38.7 °F 29.9 in SSE 3.7 mph 6.9 mph 80.4% 0 in
08:49 44.2 °F 38.8 °F 29.9 in SE 4 mph 7 mph 81.1% 0 in
08:54 44.4 °F 39 °F 29.9 in SSE 3.4 mph 5 mph 81.2% 0 in
08:59 44.8 °F 39.2 °F 29.9 in Sur 3.1 mph 6.2 mph 80.6% 0 in
09:04 45 °F 39.2 °F 29.9 in SO 3.1 mph 6 mph 80% 0 in
09:09 45.1 °F 39.2 °F 29.9 in SSO 3.1 mph 8.1 mph 79.2% 0 in
09:14 45.5 °F 38.7 °F 29.9 in SSO 3.9 mph 8.1 mph 76.8% 0 in
09:19 45.7 °F 38.3 °F 29.9 in SSO 4.3 mph 8.1 mph 75.3% 0 in
09:24 45.9 °F 38.5 °F 29.9 in SSO 4.9 mph 8.1 mph 75% 0 in
09:29 45.9 °F 38.3 °F 29.9 in SSO 5.2 mph 8.5 mph 74.5% 0 in
09:34 45.9 °F 37.9 °F 29.9 in SSO 5.2 mph 9 mph 74% 0 in
09:39 46 °F 38.1 °F 29.9 in SSO 5.2 mph 9 mph 74% 0 in
09:44 46 °F 38.3 °F 29.9 in SSO 5.2 mph 8.1 mph 74% 0 in
09:49 46.4 °F 38.5 °F 29.9 in SSO 5.2 mph 8 mph 74% 0 in
09:54 46.6 °F 38.5 °F 29.9 in SO 4.8 mph 8.1 mph 73.1% 0 in
09:59 46.9 °F 38.5 °F 29.9 in SO 4.7 mph 8.1 mph 72.2% 0 in
10:04 47.3 °F 38.7 °F 29.9 in SO 4.2 mph 8 mph 71.8% 0 in
10:09 47.7 °F 38.7 °F 29.9 in OSO 4 mph 7.6 mph 71% 0 in
10:14 47.8 °F 38.5 °F 29.9 in OSO 4.5 mph 8.1 mph 70.1% 0 in
10:19 47.8 °F 38.5 °F 29.9 in OSO 4.7 mph 8.1 mph 70% 0 in
10:24 48.2 °F 38.8 °F 29.9 in SO 5 mph 8 mph 70% 0 in
10:29 48.6 °F 38.8 °F 29.9 in SO 5.2 mph 7 mph 69.1% 0 in
10:34 48.9 °F 38.7 °F 29.9 in OSO 4.1 mph 7 mph 67.7% 0 in
10:39 49.3 °F 38.8 °F 29.9 in Oeste 3.6 mph 7 mph 67% 0 in
10:44 49.5 °F 38.8 °F 29.9 in OSO 3.6 mph 6 mph 66.4% 0 in
10:49 49.8 °F 38.7 °F 29.9 in OSO 3.6 mph 5.8 mph 65.4% 0 in
10:54 50.2 °F 38.8 °F 29.9 in OSO 3.1 mph 6 mph 65% 0 in
10:59 50.2 °F 38.5 °F 29.9 in SO 2.9 mph 6.2 mph 64% 0 in
11:04 50.4 °F 38.7 °F 29.9 in SO 3.4 mph 6.2 mph 64% 0 in
11:09 50.5 °F 38.7 °F 29.9 in OSO 3.6 mph 6.4 mph 63.4% 0 in
11:14 50.9 °F 38.7 °F 29.9 in OSO 3.2 mph 7 mph 62.8% 0 in
11:19 51.3 °F 38.7 °F 29.9 in Oeste 3.1 mph 7 mph 62% 0 in
11:24 51.4 °F 38.5 °F 29.9 in OSO 3.1 mph 6 mph 61.1% 0 in
11:29 51.8 °F 38.8 °F 29.9 in OSO 3.1 mph 6 mph 61% 0 in
11:34 52.3 °F 38.8 °F 29.9 in SO 2.6 mph 5.8 mph 60.2% 0 in
11:39 52.9 °F 38.7 °F 29.9 in SSE 2.4 mph 6 mph 58.4% 0 in
11:44 53.4 °F 38.7 °F 29.9 in SE 2.7 mph 5 mph 57% 0 in
11:49 54 °F 38.8 °F 29.9 in Oeste 2.9 mph 5.8 mph 56.4% 0 in
11:54 54.1 °F 38.8 °F 29.9 in ONO 2.2 mph 6 mph 56.3% 0 in
11:59 54.3 °F 38.5 °F 29.9 in ONO 2 mph 5 mph 54.8% 0 in
12:04 54.5 °F 38.5 °F 29.9 in NO 2 mph 5.8 mph 54.6% 0 in
12:09 54.9 °F 38.5 °F 29.9 in ONO 2 mph 6 mph 54.1% 0 in
12:14 55 °F 38.8 °F 29.9 in ONO 1.9 mph 6 mph 54.2% 0 in
12:19 55.8 °F 39 °F 29.9 in Oeste 1.8 mph 3.6 mph 53.4% 0 in
12:24 56.3 °F 38.8 °F 29.9 in SSO 1.8 mph 4.7 mph 51.9% 0 in
12:29 56.1 °F 38.8 °F 29.9 in SSO 1.8 mph 5 mph 52% 0 in
12:34 56.3 °F 38.8 °F 29.9 in SO 2.2 mph 4.7 mph 52% 0 in
12:39 56.5 °F 39 °F 29.9 in SSO 2.4 mph 5 mph 52% 0 in
12:44 57 °F 39 °F 29.9 in SSE 2 mph 5.8 mph 50.9% 0 in
12:49 57.6 °F 39.2 °F 29.9 in OSO 1.8 mph 6 mph 50.6% 0 in
12:54 57.7 °F 39.6 °F 29.9 in Sur 1.9 mph 7 mph 50.6% 0 in
12:59 57.7 °F 39.6 °F 29.8 in NO 2 mph 7 mph 50.7% 0 in
13:04 57.6 °F 40.1 °F 29.8 in Sur 2 mph 5 mph 51.8% 0 in
13:09 57.7 °F 39.9 °F 29.8 in ESE 2 mph 5 mph 51.5% 0 in
13:14 57.9 °F 40.3 °F 29.8 in ESE 2 mph 5 mph 51.9% 0 in
13:19 58.3 °F 40.3 °F 29.8 in OSO 2 mph 5 mph 51% 0 in
13:24 58.5 °F 40.5 °F 29.8 in SO 1.9 mph 5 mph 51% 0 in
13:29 58.5 °F 40.5 °F 29.8 in SO 1.8 mph 5.2 mph 51% 0 in
13:34 58.5 °F 40.6 °F 29.8 in Sur 2.5 mph 5 mph 51.3% 0 in
13:39 58.6 °F 40.8 °F 29.8 in SO 2.9 mph 5 mph 51.6% 0 in
13:44 58.6 °F 41.2 °F 29.8 in SSO 2.2 mph 4 mph 52% 0 in
13:49 59 °F 41.4 °F 29.8 in SSO 2 mph 4 mph 52% 0 in
13:54 59.2 °F 41.5 °F 29.8 in SSE 1.6 mph 3.5 mph 51.8% 0 in
13:59 59.4 °F 41.5 °F 29.8 in North 1.4 mph 4.7 mph 51.7% 0 in
14:04 59.5 °F 42.1 °F 29.8 in NNO 1.8 mph 5 mph 52.4% 0 in
14:09 59.5 °F 42.4 °F 29.8 in NNO 2 mph 4 mph 53% 0 in
14:14 59.7 °F 42.6 °F 29.8 in North 1.6 mph 5.8 mph 53% 0 in
14:19 59.7 °F 42.6 °F 29.8 in NNE 1.4 mph 6 mph 53% 0 in
14:24 59.5 °F 42.8 °F 29.8 in NE 2.1 mph 5 mph 53.9% 0 in
14:29 59.5 °F 42.8 °F 29.8 in NNE 2.4 mph 4.7 mph 54% 0 in
14:34 59.5 °F 43 °F 29.8 in North 2.4 mph 5 mph 54% 0 in
14:39 59.7 °F 43 °F 29.8 in NO 2.4 mph 5.8 mph 54% 0 in
14:44 60.1 °F 43.3 °F 29.8 in NNE 2 mph 6 mph 54.1% 0 in
14:49 60.3 °F 43.5 °F 29.8 in NO 1.8 mph 5 mph 54% 0 in
14:54 60.3 °F 43.5 °F 29.8 in North 1.9 mph 5 mph 54% 0 in
14:59 60.6 °F 43.9 °F 29.8 in NNE 2 mph 5.8 mph 54% 0 in
15:04 60.6 °F 43.9 °F 29.8 in NE 2.7 mph 6 mph 54% 0 in
15:09 60.6 °F 44.2 °F 29.8 in NNE 2.9 mph 6 mph 54.8% 0 in
15:14 60.8 °F 44.4 °F 29.8 in NE 3 mph 6.2 mph 55% 0 in
15:19 60.8 °F 44.6 °F 29.8 in North 3.1 mph 6 mph 55.1% 0 in
15:24 61 °F 45.1 °F 29.8 in NE 3.1 mph 6.2 mph 55.8% 0 in
15:29 61.2 °F 45.1 °F 29.8 in NE 3.1 mph 8.1 mph 55.8% 0 in
15:34 61 °F 45.1 °F 29.8 in NNE 3.7 mph 9.2 mph 55.9% 0 in
15:39 60.8 °F 45 °F 29.8 in NNE 4 mph 9 mph 56% 0 in
15:44 61 °F 45.5 °F 29.8 in NE 4 mph 7 mph 56.8% 0 in
15:49 61.2 °F 45.3 °F 29.8 in Este 4 mph 6 mph 56% 0 in
15:54 61.3 °F 45 °F 29.8 in Sur 3.3 mph 5.4 mph 55% 0 in
15:59 61.3 °F 43.5 °F 29.8 in SE 2.9 mph 10.4 mph 51.8% 0 in
16:04 61.2 °F 43 °F 29.8 in SE 3.9 mph 10 mph 51% 0 in
16:09 61.2 °F 43.3 °F 29.8 in SE 4.3 mph 10 mph 51.8% 0 in
16:14 61.2 °F 43.5 °F 29.8 in SSE 4.6 mph 10.7 mph 52.4% 0 in
16:19 61 °F 43.7 °F 29.8 in SSE 4.7 mph 12.7 mph 53% 0 in
16:24 60.6 °F 43.5 °F 29.8 in SSE 5.9 mph 13 mph 53.1% 0 in
16:29 60.6 °F 43.3 °F 29.8 in SE 6.4 mph 12 mph 53% 0 in
16:34 60.4 °F 43.2 °F 29.8 in SE 6.3 mph 12 mph 53% 0 in
16:39 60.4 °F 43.5 °F 29.8 in SE 6.2 mph 11 mph 53.5% 0 in
16:44 60.4 °F 43.7 °F 29.8 in SE 5.5 mph 9.2 mph 54% 0 in
16:49 60.4 °F 43.9 °F 29.8 in SE 5.2 mph 10.4 mph 54.4% 0 in
16:54 60.3 °F 44.1 °F 29.8 in SE 5.3 mph 10 mph 55% 0 in
16:59 60.3 °F 44.1 °F 29.8 in SE 5.4 mph 9 mph 55.1% 0 in
17:04 60.1 °F 44.2 °F 29.8 in SE 5.4 mph 8.5 mph 56% 0 in
17:09 60.1 °F 44.6 °F 29.8 in SSE 5.4 mph 9 mph 56.8% 0 in
17:14 59.9 °F 45 °F 29.8 in SE 4.9 mph 8.1 mph 57.7% 0 in
17:19 59.7 °F 45.3 °F 29.8 in SE 4.7 mph 8.1 mph 58.8% 0 in
17:24 59.7 °F 45.7 °F 29.8 in SE 4.4 mph 7.4 mph 59.7% 0 in
17:29 59.5 °F 45.9 °F 29.8 in SSE 4.3 mph 12.7 mph 60.8% 0 in
17:34 59.4 °F 46 °F 29.8 in SE 4.9 mph 13 mph 61.6% 0 in
17:39 59.2 °F 46.2 °F 29.8 in SSE 5.2 mph 9.2 mph 62.4% 0 in
17:44 58.8 °F 46.2 °F 29.8 in SE 5.3 mph 9.2 mph 63% 0 in
17:49 58.8 °F 46.6 °F 29.8 in SE 5.4 mph 9 mph 63.7% 0 in
17:54 58.8 °F 46.8 °F 29.8 in SE 4.7 mph 6 mph 64% 0 in
17:59 58.6 °F 46.6 °F 29.8 in SSE 4.3 mph 5.9 mph 64% 0 in
18:04 58.6 °F 46.6 °F 29.8 in SSE 3.4 mph 6.9 mph 64% 0 in
18:09 58.6 °F 46.4 °F 29.8 in SSE 3.1 mph 8.1 mph 64.1% 0 in
18:14 58.5 °F 46.8 °F 29.8 in Sur 3.7 mph 8 mph 64.9% 0 in
18:19 58.5 °F 46.8 °F 29.8 in Sur 4 mph 7 mph 65% 0 in
18:24 58.5 °F 46.8 °F 29.8 in SSO 3.7 mph 8.1 mph 65% 0 in
18:29 58.5 °F 46.8 °F 29.8 in SO 3.6 mph 8.1 mph 65% 0 in
18:34 58.5 °F 46.9 °F 29.8 in SO 3.6 mph 7.6 mph 65.8% 0 in
18:39 58.3 °F 47.1 °F 29.8 in SO 3.6 mph 8.1 mph 66.3% 0 in
18:44 58.3 °F 47.5 °F 29.8 in SO 3.6 mph 8 mph 67% 0 in
18:49 58.1 °F 47.7 °F 29.8 in SO 3.6 mph 6 mph 67.9% 0 in
18:54 57.9 °F 47.7 °F 29.8 in SO 3.6 mph 6 mph 68.4% 0 in
18:59 57.9 °F 47.8 °F 29.8 in SSO 3.6 mph 6.9 mph 69.3% 0 in
19:04 57.7 °F 48 °F 29.8 in SSO 3.9 mph 7 mph 70.2% 0 in
19:09 57.6 °F 48.2 °F 29.8 in SO 4 mph 5.2 mph 71% 0 in
19:14 57.6 °F 48.7 °F 29.8 in SO 3.2 mph 5 mph 72.5% 0 in
19:19 57.4 °F 48.9 °F 29.8 in SO 2.9 mph 4 mph 73.5% 0.01 in
19:24 57.2 °F 48.7 °F 29.8 in SO 0.9 mph   73.2% 0.01 in
19:29 57 °F 48.4 °F 29.8 in Calm     73% 0.01 in
19:34 56.8 °F 48.6 °F 29.8 in Calm     73.5% 0.01 in
19:39 56.8 °F 48.9 °F 29.8 in Calm     75% 0.01 in
19:44 56.7 °F 48.7 °F 29.8 in Calm   4 mph 74.7% 0.01 in
19:49 56.7 °F 48.6 °F 29.8 in Calm   5 mph 74.5% 0.01 in
19:54 56.5 °F 48.7 °F 29.8 in ONO 1.2 mph 5 mph 75% 0.01 in
19:59 56.5 °F 48.6 °F 29.8 in ONO 1.8 mph 2 mph 75% 0.01 in
20:04 56.1 °F 48.4 °F 29.8 in ONO 0.5 mph 3.1 mph 75% 0.01 in
20:09 56.3 °F 49.1 °F 29.8 in Calm   5.2 mph 76.8% 0.01 in
20:14 56.1 °F 49.1 °F 29.8 in ESE 1.6 mph 5 mph 77.3% 0.01 in
20:19 56.1 °F 49.5 °F 29.8 in ESE 2.4 mph 5 mph 78% 0.01 in
20:24 55.9 °F 49.3 °F 29.8 in ESE 2.4 mph 5.2 mph 78.5% 0 in
20:29 55.8 °F 49.5 °F 29.8 in ESE 2.4 mph 5.8 mph 79.2% 0 in
20:34 55.6 °F 49.5 °F 29.8 in ESE 3.2 mph 6 mph 80.1% 0 in
20:39 55.4 °F 49.6 °F 29.8 in ESE 3.6 mph 5.8 mph 81% 0 in
20:44 55.2 °F 49.5 °F 29.8 in ESE 3.2 mph 6.2 mph 81% 0 in
20:49 55.2 °F 49.5 °F 29.8 in ESE 3.1 mph 6 mph 81% 0 in
20:54 55.2 °F 49.5 °F 29.8 in Este 3.1 mph 6 mph 81% 0 in
20:59 55 °F 49.3 °F 29.8 in Este 3.1 mph 5 mph 81% 0 in
21:04 55 °F 49.3 °F 29.8 in Este 2.3 mph 5 mph 81% 0 in
21:09 55 °F 49.3 °F 29.8 in Este 2 mph 3 mph 81.2% 0 in
21:14 55 °F 49.6 °F 29.8 in NE 0.6 mph 3.5 mph 82% 0 in
21:19 54.9 °F 49.5 °F 29.8 in Calm   3 mph 82% 0 in
21:24 54.7 °F 49.5 °F 29.8 in Calm   2 mph 82.3% 0 in
21:29 54.7 °F 49.6 °F 29.8 in Calm     83% 0 in
21:34 54.5 °F 49.6 °F 29.8 in Calm     83.5% 0 in
21:39 54.5 °F 49.8 °F 29.8 in Calm     84% 0 in
21:44 54.5 °F 49.8 °F 29.8 in Calm   3.1 mph 84% 0 in
21:49 54.5 °F 49.8 °F 29.8 in Calm   4.6 mph 84% 0 in
21:54 54.5 °F 49.8 °F 29.8 in ONO 1.4 mph 5 mph 84% 0 in
21:59 54.3 °F 49.6 °F 29.8 in NO 2 mph 5 mph 84% 0 in
22:04 54.3 °F 49.6 °F 29.8 in NO 2.3 mph 4 mph 84% 0 in
22:09 54.3 °F 49.6 °F 29.8 in NO 2.4 mph 4 mph 84.4% 0 in
22:14 54.1 °F 49.8 °F 29.8 in NO 2 mph 3 mph 85% 0 in
22:19 54.1 °F 49.6 °F 29.8 in NO 1.8 mph 3.6 mph 85% 0 in
22:24 54.1 °F 49.6 °F 29.8 in OSO 1.8 mph 4.6 mph 85% 0 in
22:29 54.1 °F 49.6 °F 29.8 in OSO 1.8 mph 5 mph 85% 0 in
22:34 54.1 °F 49.6 °F 29.8 in SSO 2.2 mph 5 mph 85% 0 in
22:39 54.1 °F 49.6 °F 29.8 in ESE 2.4 mph 5 mph 85% 0 in
22:44 54 °F 49.6 °F 29.8 in ESE 2.4 mph 5 mph 85.1% 0 in
22:49 53.8 °F 49.6 °F 29.8 in ESE 2.4 mph 5 mph 86% 0 in
22:54 53.6 °F 49.6 °F 29.8 in SE 2.4 mph 5 mph 86.6% 0 in
22:59 53.6 °F 49.8 °F 29.8 in SE 2.4 mph 5 mph 87% 0 in
23:04 53.4 °F 49.6 °F 29.8 in SSE 2.7 mph 5.8 mph 87% 0 in
23:09 53.4 °F 49.6 °F 29.8 in SSE 2.9 mph 6 mph 87% 0 in
23:14 53.4 °F 49.6 °F 29.8 in Sur 3.4 mph 5.2 mph 87.1% 0 in
23:19 53.2 °F 49.8 °F 29.8 in SSO 3.6 mph 5 mph 88% 0 in
23:24 53.4 °F 50 °F 29.8 in SSO 3.2 mph 5 mph 88% 0 in
23:29 53.4 °F 50 °F 29.8 in Sur 3.1 mph 5 mph 88% 0 in
23:34 53.4 °F 50 °F 29.8 in Sur 2.4 mph 3.1 mph 88% 0 in
23:39 53.4 °F 49.8 °F 29.8 in SSO 2 mph 4.6 mph 87.4% 0 in
23:44 53.2 °F 49.6 °F 29.8 in ONO 1.9 mph 5 mph 87.4% 0 in
23:49 53.1 °F 49.6 °F 29.8 in ONO 1.8 mph 3 mph 88% 0 in
23:54 52.9 °F 49.5 °F 29.8 in ONO 0.6 mph 1 mph 88% 0 in
23:59 52.7 °F 49.3 °F 29.8 in Calm     88% 0 in
Murcia-Puente Tocinos, España
Compliments of Weather Underground - 3 mb

La estación de MeteoMurcia.com, publica sus datos en los siguientes proyectos:

Weather Underground PWS IMURCIAP2 Meteoclimatic www.awekas.at

W3Counter
Web Analytics